createdAt,value
2023-02-08T00:01:17.952Z,53.58
2023-02-08T00:03:46.293Z,45.00
2023-02-08T00:06:15.386Z,48.28
2023-02-08T00:08:43.599Z,48.83
2023-02-08T00:11:13.278Z,43.90
2023-02-08T00:13:42.896Z,50.42
2023-02-08T00:16:12.330Z,48.55
2023-02-08T00:18:40.619Z,48.88
2023-02-08T00:21:10.454Z,46.25
2023-02-08T00:23:39.216Z,50.35
2023-02-08T00:26:07.664Z,47.75
2023-02-08T00:28:37.646Z,48.35
2023-02-08T00:31:06.303Z,49.35
2023-02-08T00:33:34.594Z,48.42
2023-02-08T00:36:04.330Z,44.60
2023-02-08T00:38:32.925Z,46.88
2023-02-08T00:41:01.256Z,50.50
2023-02-08T00:43:29.577Z,49.78
2023-02-08T00:46:00.491Z,47.60
2023-02-08T00:48:29.677Z,45.78
2023-02-08T00:51:02.094Z,48.78
2023-02-08T00:53:30.540Z,45.15
2023-02-08T00:55:58.832Z,47.78
2023-02-08T00:58:27.048Z,44.85
2023-02-08T01:00:55.948Z,47.92
2023-02-08T01:03:26.244Z,47.72
2023-02-08T01:05:54.560Z,47.58
2023-02-08T01:08:22.777Z,49.38
2023-02-08T01:10:50.999Z,48.20
2023-02-08T01:13:19.092Z,53.08
2023-02-08T01:15:47.271Z,50.72
2023-02-08T01:18:15.587Z,51.90
2023-02-08T01:20:44.956Z,49.97
2023-02-08T01:23:13.164Z,48.72
2023-02-08T01:25:41.891Z,51.00
2023-02-08T01:28:09.951Z,47.05
2023-02-08T01:30:39.169Z,58.28
2023-02-08T01:33:07.579Z,59.35
2023-02-08T01:35:35.939Z,55.20
2023-02-08T01:38:05.427Z,61.75
2023-02-08T01:40:33.540Z,53.95
2023-02-08T01:43:01.568Z,58.13
2023-02-08T01:45:31.541Z,58.78
2023-02-08T01:48:05.878Z,57.53
2023-02-08T01:50:41.033Z,64.47
2023-02-08T01:53:11.585Z,61.17
2023-02-08T01:55:44.149Z,62.58
2023-02-08T01:58:14.461Z,58.40
2023-02-08T02:00:42.867Z,58.95
2023-02-08T02:03:11.283Z,65.65
2023-02-08T02:05:42.734Z,61.85
2023-02-08T02:08:13.397Z,57.47
2023-02-08T02:10:43.565Z,60.57
2023-02-08T02:13:14.654Z,64.57
2023-02-08T02:15:44.568Z,60.85
2023-02-08T02:18:16.971Z,60.30
2023-02-08T02:21:13.909Z,64.53
2023-02-08T02:24:06.893Z,63.50
2023-02-08T02:27:04.035Z,63.63
2023-02-08T02:30:06.240Z,65.03
2023-02-08T02:32:52.403Z,63.00
2023-02-08T02:35:29.321Z,64.87
2023-02-08T02:38:09.624Z,68.20
2023-02-08T02:40:48.665Z,66.20
2023-02-08T02:43:40.889Z,75.30
2023-02-08T02:46:17.898Z,64.20
2023-02-08T02:48:53.862Z,64.00
2023-02-08T02:51:28.447Z,66.27
2023-02-08T02:54:02.291Z,62.40
2023-02-08T02:56:34.773Z,65.10
2023-02-08T02:59:06.027Z,68.10
2023-02-08T03:01:34.715Z,62.60
2023-02-08T03:04:14.369Z,65.13
2023-02-08T03:06:56.813Z,63.38
2023-02-08T03:09:37.755Z,64.30
2023-02-08T03:12:16.655Z,67.60
2023-02-08T03:14:59.204Z,60.40
2023-02-08T03:17:40.497Z,63.53
2023-02-08T03:20:15.219Z,61.87
2023-02-08T03:22:48.961Z,63.97
2023-02-08T03:25:24.925Z,62.47
2023-02-08T03:28:04.869Z,63.20
2023-02-08T03:30:46.218Z,62.90
2023-02-08T03:33:17.869Z,63.43
2023-02-08T03:35:57.314Z,58.00
2023-02-08T03:38:28.858Z,56.38
2023-02-08T03:40:59.096Z,60.87
2023-02-08T03:43:31.525Z,65.83
2023-02-08T03:46:08.021Z,64.77
2023-02-08T03:48:39.410Z,62.67
2023-02-08T03:51:10.620Z,58.57
2023-02-08T03:53:40.533Z,56.92
2023-02-08T03:56:13.743Z,60.33
2023-02-08T03:58:47.373Z,57.75
2023-02-08T04:01:19.845Z,59.27
2023-02-08T04:03:50.357Z,57.60
2023-02-08T04:06:19.936Z,63.13
2023-02-08T04:08:48.680Z,56.90
2023-02-08T04:11:16.807Z,59.83
2023-02-08T04:13:45.276Z,61.60
2023-02-08T04:16:13.736Z,62.17
2023-02-08T04:18:41.845Z,59.63
2023-02-08T04:21:10.146Z,59.53
2023-02-08T04:23:39.679Z,59.23
2023-02-08T04:26:08.804Z,64.80
2023-02-08T04:28:37.066Z,61.13
2023-02-08T04:31:05.355Z,64.87
2023-02-08T04:33:33.396Z,68.63
2023-02-08T04:36:01.653Z,72.10
2023-02-08T04:38:30.098Z,71.67
2023-02-08T04:40:59.928Z,68.53
2023-02-08T04:43:27.828Z,71.43
2023-02-08T04:45:56.034Z,75.30
2023-02-08T04:48:24.161Z,69.20
2023-02-08T04:50:52.149Z,72.77
2023-02-08T04:53:20.090Z,78.33
2023-02-08T04:55:48.092Z,77.95
2023-02-08T04:58:17.662Z,76.23
2023-02-08T05:00:45.847Z,74.77
2023-02-08T05:03:15.004Z,73.40
2023-02-08T05:05:43.282Z,76.40
2023-02-08T05:08:11.251Z,78.20
2023-02-08T05:10:39.547Z,71.63
2023-02-08T05:13:07.539Z,73.43
2023-02-08T05:15:39.209Z,70.07
2023-02-08T05:18:08.153Z,74.28
2023-02-08T05:20:36.058Z,75.23
2023-02-08T05:23:06.510Z,69.68
2023-02-08T05:25:34.707Z,68.00
2023-02-08T05:28:02.782Z,71.30
2023-02-08T05:30:31.762Z,67.40
2023-02-08T05:33:01.621Z,72.30
2023-02-08T05:35:31.744Z,69.03
2023-02-08T05:37:59.611Z,64.40
2023-02-08T05:40:28.169Z,69.83
2023-02-08T05:42:56.078Z,69.10
2023-02-08T05:45:24.171Z,71.03
2023-02-08T05:47:52.351Z,69.23
2023-02-08T05:50:21.746Z,67.07
2023-02-08T05:52:50.270Z,66.50
2023-02-08T05:55:18.423Z,66.53
2023-02-08T05:57:46.313Z,71.17
2023-02-08T06:00:15.549Z,63.47
2023-02-08T06:02:47.123Z,62.17
2023-02-08T06:05:15.099Z,67.73
2023-02-08T06:07:45.363Z,61.90
2023-02-08T06:10:13.216Z,66.50
2023-02-08T06:12:41.072Z,63.90
2023-02-08T06:15:09.995Z,63.70
2023-02-08T06:17:37.905Z,57.20
2023-02-08T06:20:07.027Z,58.87
2023-02-08T06:22:35.870Z,55.17
2023-02-08T06:25:07.112Z,59.87
2023-02-08T06:27:35.303Z,57.17
2023-02-08T06:30:03.615Z,54.03
2023-02-08T06:32:31.640Z,59.30
2023-02-08T06:34:59.650Z,58.20
2023-02-08T06:37:27.804Z,59.00
2023-02-08T06:39:55.804Z,60.37
2023-02-08T06:42:26.397Z,51.27
2023-02-08T06:44:55.931Z,59.07
2023-02-08T06:47:24.454Z,58.70
2023-02-08T06:49:52.587Z,55.87
2023-02-08T06:52:21.407Z,55.93
2023-02-08T06:54:49.415Z,56.30
2023-02-08T06:57:17.340Z,56.70
2023-02-08T06:59:47.527Z,61.57
2023-02-08T07:02:17.262Z,59.00
2023-02-08T07:04:45.708Z,54.67
2023-02-08T07:07:14.559Z,54.23
2023-02-08T07:09:42.883Z,58.67
2023-02-08T07:12:11.245Z,57.07
2023-02-08T07:14:42.261Z,53.60
2023-02-08T07:17:12.814Z,53.07
2023-02-08T07:19:41.792Z,57.63
2023-02-08T07:22:10.283Z,59.83
2023-02-08T07:24:40.078Z,57.20
2023-02-08T07:27:10.774Z,62.37
2023-02-08T07:29:41.766Z,54.50
2023-02-08T07:32:14.028Z,54.63
2023-02-08T07:34:42.241Z,60.73
2023-02-08T07:37:11.078Z,57.13
2023-02-08T07:39:39.453Z,50.03
2023-02-08T07:42:09.258Z,60.37
2023-02-08T07:44:38.538Z,58.83
2023-02-08T07:47:07.464Z,52.23
2023-02-08T07:49:50.774Z,53.47
2023-02-08T07:52:18.956Z,53.80
2023-02-08T07:54:47.072Z,50.97
2023-02-08T07:57:21.036Z,50.00
2023-02-08T07:59:49.437Z,56.53
2023-02-08T08:02:18.675Z,53.20
2023-02-08T08:04:54.046Z,49.27
2023-02-08T08:07:22.925Z,48.93
2023-02-08T08:09:51.016Z,46.03
2023-02-08T08:12:19.228Z,49.60
2023-02-08T08:14:47.785Z,50.40
2023-02-08T08:17:15.881Z,50.80
2023-02-08T08:19:44.753Z,51.87
2023-02-08T08:22:14.126Z,48.10
2023-02-08T08:24:42.704Z,47.20
2023-02-08T08:27:11.358Z,45.37
2023-02-08T08:29:39.852Z,52.57
2023-02-08T08:32:10.831Z,47.90
2023-02-08T08:34:39.934Z,49.00
2023-02-08T08:37:08.122Z,50.40
2023-02-08T08:39:37.902Z,46.33
2023-02-08T08:42:06.137Z,50.33
2023-02-08T08:44:34.340Z,50.57
2023-02-08T08:47:02.736Z,51.30
2023-02-08T08:49:31.527Z,45.73
2023-02-08T08:51:59.724Z,47.80
2023-02-08T08:54:27.714Z,43.33
2023-02-08T08:56:57.530Z,47.03
2023-02-08T08:59:26.016Z,48.60
2023-02-08T09:01:54.466Z,46.20
2023-02-08T09:04:23.347Z,47.87
2023-02-08T09:06:52.256Z,46.37
2023-02-08T09:09:21.095Z,43.73
2023-02-08T09:11:49.863Z,42.60
2023-02-08T09:14:19.573Z,43.87
2023-02-08T09:16:48.196Z,55.53
2023-02-08T09:19:16.941Z,45.67
2023-02-08T09:21:46.432Z,48.50
2023-02-08T09:24:16.238Z,45.60
2023-02-08T09:26:46.011Z,45.53
2023-02-08T09:29:14.362Z,43.07
2023-02-08T09:31:44.314Z,48.53
2023-02-08T09:34:12.555Z,41.93
2023-02-08T09:36:42.005Z,43.07
2023-02-08T09:39:13.255Z,43.13
2023-02-08T09:42:13.316Z,42.73
2023-02-08T09:44:51.999Z,43.27
2023-02-08T09:47:24.361Z,39.13
2023-02-08T09:49:58.658Z,39.63
2023-02-08T09:52:34.384Z,37.87
2023-02-08T09:55:12.389Z,33.60
2023-02-08T09:57:40.983Z,36.67
2023-02-08T10:00:15.136Z,37.30
2023-02-08T10:02:45.377Z,38.10
2023-02-08T10:05:15.767Z,34.03
2023-02-08T10:07:44.904Z,37.33
2023-02-08T10:10:16.886Z,37.57
2023-02-08T10:12:55.278Z,36.27
2023-02-08T10:15:34.485Z,35.67
2023-02-08T10:18:33.267Z,37.33
2023-02-08T10:21:35.150Z,40.27
2023-02-08T10:24:27.178Z,36.37
2023-02-08T10:27:04.076Z,35.03
2023-02-08T10:29:52.562Z,35.17
2023-02-08T10:32:35.289Z,33.90
2023-02-08T10:35:07.469Z,32.57
2023-02-08T10:37:38.943Z,34.97
2023-02-08T10:40:31.059Z,33.95
2023-02-08T10:43:11.518Z,30.23
2023-02-08T10:45:46.906Z,33.07
2023-02-08T10:48:20.936Z,33.37
2023-02-08T10:50:50.968Z,33.77
2023-02-08T10:53:20.542Z,35.35
2023-02-08T10:55:50.491Z,30.10
2023-02-08T10:58:21.168Z,32.15
2023-02-08T11:00:52.090Z,31.60
2023-02-08T11:03:24.306Z,32.03
2023-02-08T11:05:54.341Z,31.67
2023-02-08T11:08:24.406Z,29.50
2023-02-08T11:11:01.210Z,32.75
2023-02-08T11:13:36.585Z,33.13
2023-02-08T11:16:07.674Z,34.92
2023-02-08T11:18:39.477Z,30.98
2023-02-08T11:21:12.169Z,33.83
2023-02-08T11:23:43.904Z,34.33
2023-02-08T11:26:23.181Z,31.53
2023-02-08T11:29:03.665Z,35.78
2023-02-08T11:31:32.673Z,32.92
2023-02-08T11:34:03.677Z,32.37
2023-02-08T11:36:35.511Z,31.47
2023-02-08T11:39:04.973Z,36.95
2023-02-08T11:41:33.816Z,32.30
2023-02-08T11:44:06.521Z,30.70
2023-02-08T11:46:37.315Z,29.87
2023-02-08T11:49:05.699Z,32.17
2023-02-08T11:51:37.735Z,35.42
2023-02-08T11:54:06.683Z,30.35
2023-02-08T11:56:35.929Z,32.00
2023-02-08T11:59:17.237Z,30.17
2023-02-08T12:01:45.612Z,28.42
2023-02-08T12:04:16.865Z,30.77
2023-02-08T12:07:20.388Z,29.58
2023-02-08T12:10:10.212Z,30.17
2023-02-08T12:12:47.422Z,32.20
2023-02-08T12:15:26.013Z,29.70
2023-02-08T12:18:11.821Z,27.98
2023-02-08T12:20:42.597Z,26.77
2023-02-08T12:23:51.904Z,29.20
2023-02-08T12:26:34.373Z,26.60
2023-02-08T12:29:22.879Z,27.23
2023-02-08T12:32:05.642Z,28.67
2023-02-08T12:34:49.492Z,26.13
2023-02-08T12:37:45.663Z,27.08
2023-02-08T12:40:45.154Z,25.42
2023-02-08T12:43:30.871Z,27.48
2023-02-08T12:46:30.842Z,24.48
2023-02-08T12:49:21.472Z,26.25
2023-02-08T12:51:56.156Z,24.55
2023-02-08T12:54:32.854Z,26.67
2023-02-08T12:57:02.997Z,26.95
2023-02-08T12:59:38.637Z,22.02
2023-02-08T13:02:17.478Z,24.75
2023-02-08T13:04:49.126Z,25.45
2023-02-08T13:07:22.159Z,24.90
2023-02-08T13:09:57.096Z,23.77
2023-02-08T13:12:29.057Z,26.98
2023-02-08T13:15:03.546Z,24.15
2023-02-08T13:17:41.591Z,26.77
2023-02-08T13:20:30.093Z,26.63
2023-02-08T13:23:03.613Z,24.90
2023-02-08T13:25:35.513Z,26.48
2023-02-08T13:28:05.565Z,28.50
2023-02-08T13:30:40.066Z,27.85
2023-02-08T13:33:17.320Z,26.52
2023-02-08T13:35:51.188Z,23.05
2023-02-08T13:38:26.717Z,24.55
2023-02-08T13:41:08.431Z,24.63
2023-02-08T13:43:41.945Z,28.75
2023-02-08T13:46:12.761Z,25.55
2023-02-08T13:48:49.568Z,27.48
2023-02-08T13:51:52.311Z,26.95
2023-02-08T13:54:20.611Z,29.13
2023-02-08T13:56:50.663Z,27.40
2023-02-08T13:59:37.423Z,26.77
2023-02-08T14:02:30.633Z,29.35
2023-02-08T14:05:49.784Z,27.90
2023-02-08T14:08:23.890Z,27.20
2023-02-08T14:11:04.573Z,31.63
2023-02-08T14:13:36.014Z,29.55
2023-02-08T14:16:30.865Z,29.58
2023-02-08T14:19:02.955Z,28.83
2023-02-08T14:21:36.417Z,29.73
2023-02-08T14:24:07.021Z,29.60
2023-02-08T14:26:36.500Z,32.63
2023-02-08T14:29:08.147Z,30.00
2023-02-08T14:31:42.338Z,29.98
2023-02-08T14:34:25.581Z,31.00
2023-02-08T14:37:04.879Z,32.53
2023-02-08T14:39:34.805Z,32.15
2023-02-08T14:42:07.168Z,28.60
2023-02-08T14:45:03.279Z,30.33
2023-02-08T14:47:55.349Z,33.65
2023-02-08T14:50:40.394Z,35.88
2023-02-08T14:53:25.214Z,28.60
2023-02-08T14:55:59.395Z,32.83
2023-02-08T14:58:33.403Z,30.30
2023-02-08T15:01:04.599Z,33.25
2023-02-08T15:03:34.768Z,34.97
2023-02-08T15:06:30.683Z,34.72
2023-02-08T15:08:59.375Z,34.75
2023-02-08T15:11:31.117Z,30.63
2023-02-08T15:14:02.556Z,33.38
2023-02-08T15:16:36.116Z,33.50
2023-02-08T15:19:05.866Z,32.83
2023-02-08T15:21:37.250Z,33.83
2023-02-08T15:24:13.537Z,35.60
2023-02-08T15:26:47.612Z,37.15
2023-02-08T15:29:32.672Z,37.70
2023-02-08T15:32:04.070Z,33.38
2023-02-08T15:34:33.336Z,35.65
2023-02-08T15:37:05.302Z,37.85
2023-02-08T15:39:36.374Z,38.92
2023-02-08T15:42:04.393Z,37.80
2023-02-08T15:44:35.015Z,36.85
2023-02-08T15:47:05.826Z,42.85
2023-02-08T15:49:37.322Z,42.78
2023-02-08T15:52:08.437Z,44.80
2023-02-08T15:54:36.516Z,43.72
2023-02-08T15:57:08.603Z,44.13
2023-02-08T15:59:39.752Z,47.05
2023-02-08T16:02:27.663Z,47.15
2023-02-08T16:04:57.064Z,45.05
2023-02-08T16:07:30.218Z,45.63
2023-02-08T16:09:59.219Z,46.03
2023-02-08T16:12:29.481Z,47.95
2023-02-08T16:14:57.996Z,46.75
2023-02-08T16:17:36.654Z,50.85
2023-02-08T16:20:20.831Z,47.67
2023-02-08T16:22:58.299Z,45.47
2023-02-08T16:25:36.093Z,49.50
2023-02-08T16:28:05.891Z,50.75
2023-02-08T16:30:34.794Z,46.17
2023-02-08T16:33:08.787Z,48.30
2023-02-08T16:35:39.892Z,51.10
2023-02-08T16:38:11.583Z,53.80
2023-02-08T16:40:49.094Z,47.47
2023-02-08T16:43:19.472Z,52.65
2023-02-08T16:45:48.292Z,50.30
2023-02-08T16:48:38.015Z,53.20
2023-02-08T16:51:08.571Z,51.53
2023-02-08T16:53:42.454Z,53.92
2023-02-08T16:56:12.048Z,54.47
2023-02-08T16:58:40.820Z,54.70
2023-02-08T17:01:15.859Z,52.90
2023-02-08T17:03:44.127Z,50.55
2023-02-08T17:06:24.901Z,51.28
2023-02-08T17:08:54.624Z,54.72
2023-02-08T17:11:26.837Z,53.15
2023-02-08T17:13:55.356Z,53.08
2023-02-08T17:16:27.645Z,54.78
2023-02-08T17:18:56.148Z,51.38
2023-02-08T17:21:28.646Z,53.13
2023-02-08T17:24:01.582Z,56.47
2023-02-08T17:26:33.370Z,54.92
2023-02-08T17:29:02.047Z,54.40
2023-02-08T17:31:30.853Z,53.53
2023-02-08T17:34:04.346Z,57.17
2023-02-08T17:36:33.798Z,57.08
2023-02-08T17:39:05.340Z,55.35
2023-02-08T17:41:36.696Z,54.28
2023-02-08T17:44:05.113Z,57.95
2023-02-08T17:46:33.166Z,53.45
2023-02-08T17:49:02.006Z,57.15
2023-02-08T17:51:30.459Z,55.97
2023-02-08T17:53:58.632Z,57.20
2023-02-08T17:56:29.576Z,59.38
2023-02-08T17:59:00.575Z,57.28
2023-02-08T18:01:28.831Z,58.30
2023-02-08T18:04:00.759Z,61.85
2023-02-08T18:06:29.070Z,54.30
2023-02-08T18:08:57.327Z,60.55
2023-02-08T18:11:25.393Z,59.03
2023-02-08T18:13:55.253Z,55.38
2023-02-08T18:16:25.129Z,56.38
2023-02-08T18:19:02.028Z,58.88
2023-02-08T18:21:33.060Z,62.55
2023-02-08T18:24:02.140Z,60.03
2023-02-08T18:26:33.425Z,60.58
2023-02-08T18:29:03.223Z,57.30
2023-02-08T18:31:32.031Z,57.13
2023-02-08T18:33:59.979Z,55.95
2023-02-08T18:36:28.366Z,60.53
2023-02-08T18:38:58.855Z,59.92
2023-02-08T18:41:29.153Z,57.50
2023-02-08T18:43:58.708Z,59.40
2023-02-08T18:46:29.676Z,54.45
2023-02-08T18:48:57.814Z,57.88
2023-02-08T18:51:26.835Z,60.72
2023-02-08T18:53:56.209Z,56.00
2023-02-08T18:56:27.131Z,63.75
2023-02-08T18:58:58.881Z,56.13
2023-02-08T19:01:28.669Z,57.53
2023-02-08T19:03:57.118Z,57.67
2023-02-08T19:06:27.318Z,58.38
2023-02-08T19:08:57.288Z,53.88
2023-02-08T19:11:32.031Z,57.60
2023-02-08T19:14:01.804Z,55.75
2023-02-08T19:16:32.338Z,58.70
2023-02-08T19:19:01.333Z,53.95
2023-02-08T19:21:30.721Z,59.70
2023-02-08T19:24:02.544Z,56.78
2023-02-08T19:26:32.853Z,60.63
2023-02-08T19:29:03.453Z,53.00
2023-02-08T19:31:35.292Z,55.60
2023-02-08T19:34:04.962Z,54.17
2023-02-08T19:36:35.395Z,57.25
2023-02-08T19:39:04.377Z,55.45
2023-02-08T19:41:34.669Z,59.20
2023-02-08T19:44:05.941Z,54.97
2023-02-08T19:46:38.823Z,58.80
2023-02-08T19:49:08.277Z,55.22
2023-02-08T19:51:37.598Z,58.30
2023-02-08T19:54:08.439Z,59.47
2023-02-08T19:56:39.466Z,54.22
2023-02-08T19:59:12.838Z,55.35
2023-02-08T20:01:42.489Z,53.78
2023-02-08T20:04:12.361Z,59.53
2023-02-08T20:06:41.167Z,55.70
2023-02-08T20:09:09.708Z,52.05
2023-02-08T20:11:54.820Z,51.80
2023-02-08T20:14:26.479Z,54.30
2023-02-08T20:16:56.478Z,50.15
2023-02-08T20:19:25.030Z,53.20
2023-02-08T20:21:54.307Z,54.05
2023-02-08T20:24:22.735Z,54.72
2023-02-08T20:26:51.419Z,56.22
2023-02-08T20:29:20.109Z,52.17
2023-02-08T20:31:51.887Z,54.55
2023-02-08T20:34:22.015Z,51.42
2023-02-08T20:37:05.690Z,52.65
2023-02-08T20:39:36.014Z,50.42
2023-02-08T20:42:04.372Z,54.53
2023-02-08T20:44:32.446Z,54.78
2023-02-08T20:47:00.738Z,53.67
2023-02-08T20:49:32.079Z,56.20
2023-02-08T20:52:00.790Z,54.90
2023-02-08T20:54:29.266Z,53.08
2023-02-08T20:56:57.613Z,54.60
2023-02-08T20:59:25.949Z,53.45
2023-02-08T21:01:53.972Z,50.92
2023-02-08T21:04:23.443Z,53.13
2023-02-08T21:06:54.000Z,52.50
2023-02-08T21:09:25.179Z,53.67
2023-02-08T21:11:54.414Z,55.00
2023-02-08T21:14:23.696Z,50.92
2023-02-08T21:16:53.813Z,53.95
2023-02-08T21:19:22.048Z,53.42
2023-02-08T21:21:56.350Z,53.20
2023-02-08T21:24:25.243Z,54.75
2023-02-08T21:26:53.663Z,51.55
2023-02-08T21:29:22.584Z,52.15
2023-02-08T21:31:52.496Z,50.58
2023-02-08T21:34:21.771Z,52.35
2023-02-08T21:36:49.801Z,56.25
2023-02-08T21:39:20.010Z,49.25
2023-02-08T21:41:48.253Z,50.50
2023-02-08T21:44:16.343Z,53.47
2023-02-08T21:46:44.263Z,51.10
2023-02-08T21:49:30.024Z,51.72
2023-02-08T21:52:16.757Z,49.95
2023-02-08T21:54:52.923Z,48.38
2023-02-08T21:57:22.692Z,52.17
2023-02-08T21:59:52.289Z,49.08
2023-02-08T22:02:23.343Z,50.22
2023-02-08T22:05:09.090Z,52.88
2023-02-08T22:07:45.082Z,51.70
2023-02-08T22:10:17.754Z,50.80
2023-02-08T22:12:47.096Z,49.15
2023-02-08T22:15:17.014Z,48.92
2023-02-08T22:17:45.700Z,46.80
2023-02-08T22:20:14.864Z,50.85
2023-02-08T22:22:42.779Z,54.13
2023-02-08T22:25:13.512Z,46.05
2023-02-08T22:27:43.522Z,46.45
2023-02-08T22:30:14.164Z,48.92
2023-02-08T22:32:42.951Z,48.85
2023-02-08T22:35:11.884Z,48.28
2023-02-08T22:37:40.515Z,47.80
2023-02-08T22:40:09.871Z,45.60
2023-02-08T22:42:39.314Z,47.60
2023-02-08T22:45:10.064Z,45.10
2023-02-08T22:47:38.558Z,47.50
2023-02-08T22:50:07.738Z,44.35
2023-02-08T22:52:35.746Z,43.20
2023-02-08T22:55:04.860Z,43.50
2023-02-08T22:57:33.646Z,46.63
2023-02-08T23:00:01.671Z,40.83
2023-02-08T23:02:31.171Z,46.47
2023-02-08T23:05:00.926Z,41.30
2023-02-08T23:07:29.117Z,43.50
2023-02-08T23:09:57.165Z,42.53
2023-02-08T23:12:25.587Z,43.20
2023-02-08T23:14:53.457Z,42.60
2023-02-08T23:17:21.300Z,44.70
2023-02-08T23:19:52.506Z,40.70
2023-02-08T23:22:20.439Z,41.40
2023-02-08T23:24:48.959Z,42.50
2023-02-08T23:27:16.958Z,42.08
2023-02-08T23:29:44.893Z,44.40
2023-02-08T23:32:13.049Z,42.35
2023-02-08T23:34:40.992Z,42.15
2023-02-08T23:37:10.218Z,39.67
2023-02-08T23:39:38.043Z,44.05
2023-02-08T23:42:06.707Z,40.38
2023-02-08T23:44:36.775Z,41.50
2023-02-08T23:47:07.392Z,42.08
2023-02-08T23:49:35.360Z,43.67
2023-02-08T23:52:03.509Z,43.42
2023-02-08T23:54:33.083Z,41.00
2023-02-08T23:57:01.017Z,42.50
2023-02-08T23:59:29.498Z,44.25
